Choctaw, Oklahoma
Current Conditions -  °F | °C
As of 7:58 AM on Thursday 27 Nov 2014 (Local Time) from KTIK Reporting Station
Clear Clear  
Wind Chill: 28°   Ceiling: Unl
Heat Index: 28°   Visibility: 10mi
Dew Point: 24°   Wind: 2mph
Humidity: 83%   Direction: 40°NE
Pressure: 30.51"   Gusts: NA
Location:  35.49°N, 97.27°W
Report Text: KTIK 271358Z AUTO 04002KT 10SM CLR M02/M05 A3051 RMK AO2 SLP349 T10211047
Loading
Personal Weather Stations






























Interactive Weather Map New forecast layout! Learn more

10-Day Weather Forecast

Advertisements
Track Severe Weather on mobile